sensor_id;sensor_type;location;lat;lon;timestamp;P1;durP1;ratioP1;P2;durP2;ratioP2
2646;SDS011;1333;50.958;6.770;2024-02-28T00:00:27;34.77;;;16.60;;
2646;SDS011;1333;50.958;6.770;2024-02-28T00:02:53;36.17;;;15.33;;
2646;SDS011;1333;50.958;6.770;2024-02-28T00:05:18;45.60;;;18.20;;
2646;SDS011;1333;50.958;6.770;2024-02-28T00:07:44;36.60;;;18.33;;
2646;SDS011;1333;50.958;6.770;2024-02-28T00:10:11;42.67;;;19.30;;
2646;SDS011;1333;50.958;6.770;2024-02-28T00:12:36;37.57;;;16.17;;
2646;SDS011;1333;50.958;6.770;2024-02-28T00:15:04;38.63;;;18.97;;
2646;SDS011;1333;50.958;6.770;2024-02-28T00:17:30;40.10;;;17.53;;
2646;SDS011;1333;50.958;6.770;2024-02-28T00:19:55;45.90;;;19.20;;
2646;SDS011;1333;50.958;6.770;2024-02-28T00:22:21;49.23;;;21.87;;
2646;SDS011;1333;50.958;6.770;2024-02-28T00:24:46;45.50;;;21.57;;
2646;SDS011;1333;50.958;6.770;2024-02-28T00:27:13;39.60;;;20.93;;
2646;SDS011;1333;50.958;6.770;2024-02-28T00:29:38;42.23;;;21.20;;
2646;SDS011;1333;50.958;6.770;2024-02-28T00:32:04;45.47;;;20.93;;
2646;SDS011;1333;50.958;6.770;2024-02-28T00:34:30;49.53;;;20.63;;
2646;SDS011;1333;50.958;6.770;2024-02-28T00:36:55;44.60;;;19.90;;
2646;SDS011;1333;50.958;6.770;2024-02-28T00:39:21;42.93;;;21.30;;
2646;SDS011;1333;50.958;6.770;2024-02-28T00:41:46;46.93;;;20.20;;
2646;SDS011;1333;50.958;6.770;2024-02-28T00:44:12;53.37;;;25.27;;
2646;SDS011;1333;50.958;6.770;2024-02-28T00:46:38;39.17;;;20.13;;
2646;SDS011;1333;50.958;6.770;2024-02-28T00:49:04;45.30;;;21.90;;
2646;SDS011;1333;50.958;6.770;2024-02-28T00:51:30;43.30;;;21.53;;
2646;SDS011;1333;50.958;6.770;2024-02-28T00:53:55;42.60;;;19.57;;
2646;SDS011;1333;50.958;6.770;2024-02-28T00:56:21;39.60;;;19.60;;
2646;SDS011;1333;50.958;6.770;2024-02-28T00:58:47;41.83;;;18.53;;
2646;SDS011;1333;50.958;6.770;2024-02-28T01:01:12;48.33;;;20.00;;
2646;SDS011;1333;50.958;6.770;2024-02-28T01:03:38;47.97;;;21.30;;
2646;SDS011;1333;50.958;6.770;2024-02-28T01:06:04;52.83;;;22.30;;
2646;SDS011;1333;50.958;6.770;2024-02-28T01:08:29;46.40;;;21.07;;
2646;SDS011;1333;50.958;6.770;2024-02-28T01:10:55;43.33;;;18.83;;
2646;SDS011;1333;50.958;6.770;2024-02-28T01:13:20;41.60;;;19.70;;
2646;SDS011;1333;50.958;6.770;2024-02-28T01:15:46;36.80;;;18.10;;
2646;SDS011;1333;50.958;6.770;2024-02-28T01:18:12;40.60;;;17.53;;
2646;SDS011;1333;50.958;6.770;2024-02-28T01:20:37;39.07;;;17.20;;
2646;SDS011;1333;50.958;6.770;2024-02-28T01:23:03;36.80;;;16.90;;
2646;SDS011;1333;50.958;6.770;2024-02-28T01:25:28;32.80;;;16.17;;
2646;SDS011;1333;50.958;6.770;2024-02-28T01:27:55;34.33;;;15.80;;
2646;SDS011;1333;50.958;6.770;2024-02-28T01:30:21;36.43;;;16.37;;
2646;SDS011;1333;50.958;6.770;2024-02-28T01:32:47;41.60;;;18.93;;
2646;SDS011;1333;50.958;6.770;2024-02-28T01:35:13;35.70;;;15.40;;
2646;SDS011;1333;50.958;6.770;2024-02-28T01:37:38;34.40;;;14.87;;
2646;SDS011;1333;50.958;6.770;2024-02-28T01:40:04;29.63;;;14.97;;
2646;SDS011;1333;50.958;6.770;2024-02-28T01:42:30;37.33;;;16.63;;
2646;SDS011;1333;50.958;6.770;2024-02-28T01:44:55;37.20;;;17.47;;
2646;SDS011;1333;50.958;6.770;2024-02-28T01:47:21;45.13;;;17.80;;
2646;SDS011;1333;50.958;6.770;2024-02-28T01:49:46;42.23;;;19.30;;
2646;SDS011;1333;50.958;6.770;2024-02-28T01:52:13;38.00;;;18.53;;
2646;SDS011;1333;50.958;6.770;2024-02-28T01:54:39;47.90;;;17.20;;
2646;SDS011;1333;50.958;6.770;2024-02-28T01:57:06;36.27;;;16.10;;
2646;SDS011;1333;50.958;6.770;2024-02-28T01:59:32;35.13;;;17.83;;
2646;SDS011;1333;50.958;6.770;2024-02-28T02:01:59;40.63;;;15.87;;
2646;SDS011;1333;50.958;6.770;2024-02-28T02:04:25;40.03;;;17.73;;
2646;SDS011;1333;50.958;6.770;2024-02-28T02:06:50;33.37;;;15.47;;
2646;SDS011;1333;50.958;6.770;2024-02-28T02:09:19;45.23;;;18.27;;
2646;SDS011;1333;50.958;6.770;2024-02-28T02:11:45;48.47;;;22.07;;
2646;SDS011;1333;50.958;6.770;2024-02-28T02:14:10;42.57;;;19.73;;
2646;SDS011;1333;50.958;6.770;2024-02-28T02:16:36;39.70;;;18.73;;
2646;SDS011;1333;50.958;6.770;2024-02-28T02:19:01;42.97;;;20.37;;
2646;SDS011;1333;50.958;6.770;2024-02-28T02:21:31;43.57;;;17.17;;
2646;SDS011;1333;50.958;6.770;2024-02-28T02:24:02;53.73;;;21.73;;
2646;SDS011;1333;50.958;6.770;2024-02-28T02:26:28;37.53;;;18.07;;
2646;SDS011;1333;50.958;6.770;2024-02-28T02:28:53;35.40;;;15.60;;
2646;SDS011;1333;50.958;6.770;2024-02-28T02:31:19;39.73;;;17.70;;
2646;SDS011;1333;50.958;6.770;2024-02-28T02:33:44;37.70;;;18.93;;
2646;SDS011;1333;50.958;6.770;2024-02-28T02:36:10;44.97;;;17.90;;
2646;SDS011;1333;50.958;6.770;2024-02-28T02:38:35;57.33;;;21.50;;
2646;SDS011;1333;50.958;6.770;2024-02-28T02:41:01;41.70;;;19.10;;
2646;SDS011;1333;50.958;6.770;2024-02-28T02:43:26;38.80;;;16.43;;
2646;SDS011;1333;50.958;6.770;2024-02-28T02:45:52;42.60;;;17.50;;
2646;SDS011;1333;50.958;6.770;2024-02-28T02:48:17;44.03;;;19.40;;
2646;SDS011;1333;50.958;6.770;2024-02-28T02:50:43;40.07;;;18.07;;
2646;SDS011;1333;50.958;6.770;2024-02-28T02:53:09;44.07;;;16.00;;
2646;SDS011;1333;50.958;6.770;2024-02-28T02:55:35;33.50;;;16.97;;
2646;SDS011;1333;50.958;6.770;2024-02-28T02:58:01;38.40;;;17.63;;
2646;SDS011;1333;50.958;6.770;2024-02-28T03:00:27;43.53;;;19.30;;
2646;SDS011;1333;50.958;6.770;2024-02-28T03:02:53;42.70;;;17.17;;
2646;SDS011;1333;50.958;6.770;2024-02-28T03:05:18;45.37;;;19.90;;
2646;SDS011;1333;50.958;6.770;2024-02-28T03:07:44;51.63;;;18.33;;
2646;SDS011;1333;50.958;6.770;2024-02-28T03:10:10;39.63;;;16.20;;
2646;SDS011;1333;50.958;6.770;2024-02-28T03:12:35;43.60;;;16.97;;
2646;SDS011;1333;50.958;6.770;2024-02-28T03:15:01;50.00;;;20.10;;
2646;SDS011;1333;50.958;6.770;2024-02-28T03:17:28;38.03;;;16.30;;
2646;SDS011;1333;50.958;6.770;2024-02-28T03:19:53;35.63;;;15.97;;
2646;SDS011;1333;50.958;6.770;2024-02-28T03:22:19;52.47;;;20.80;;
2646;SDS011;1333;50.958;6.770;2024-02-28T03:24:44;38.03;;;17.10;;
2646;SDS011;1333;50.958;6.770;2024-02-28T03:27:10;40.30;;;16.70;;
2646;SDS011;1333;50.958;6.770;2024-02-28T03:29:35;49.50;;;20.43;;
2646;SDS011;1333;50.958;6.770;2024-02-28T03:32:01;39.47;;;17.67;;
2646;SDS011;1333;50.958;6.770;2024-02-28T03:34:26;37.23;;;17.27;;
2646;SDS011;1333;50.958;6.770;2024-02-28T03:36:52;29.47;;;15.30;;
2646;SDS011;1333;50.958;6.770;2024-02-28T03:39:18;37.47;;;16.90;;
2646;SDS011;1333;50.958;6.770;2024-02-28T03:41:43;34.37;;;16.27;;
2646;SDS011;1333;50.958;6.770;2024-02-28T03:44:09;39.37;;;17.33;;
2646;SDS011;1333;50.958;6.770;2024-02-28T03:46:34;38.43;;;16.13;;
2646;SDS011;1333;50.958;6.770;2024-02-28T03:49:00;45.97;;;19.50;;
2646;SDS011;1333;50.958;6.770;2024-02-28T03:51:25;37.10;;;17.37;;
2646;SDS011;1333;50.958;6.770;2024-02-28T03:53:51;43.13;;;20.47;;
2646;SDS011;1333;50.958;6.770;2024-02-28T03:56:23;61.30;;;21.57;;
2646;SDS011;1333;50.958;6.770;2024-02-28T03:58:52;43.23;;;18.70;;
2646;SDS011;1333;50.958;6.770;2024-02-28T04:01:18;44.20;;;21.17;;
2646;SDS011;1333;50.958;6.770;2024-02-28T04:03:44;39.93;;;17.67;;
2646;SDS011;1333;50.958;6.770;2024-02-28T04:06:10;50.77;;;19.43;;
2646;SDS011;1333;50.958;6.770;2024-02-28T04:08:36;41.97;;;18.97;;
2646;SDS011;1333;50.958;6.770;2024-02-28T04:11:01;45.97;;;18.77;;
2646;SDS011;1333;50.958;6.770;2024-02-28T04:13:27;49.77;;;20.30;;
2646;SDS011;1333;50.958;6.770;2024-02-28T04:15:53;49.47;;;20.83;;
2646;SDS011;1333;50.958;6.770;2024-02-28T04:18:18;49.27;;;19.30;;
2646;SDS011;1333;50.958;6.770;2024-02-28T04:20:44;49.20;;;20.80;;
2646;SDS011;1333;50.958;6.770;2024-02-28T04:23:09;48.30;;;20.77;;
2646;SDS011;1333;50.958;6.770;2024-02-28T04:25:35;55.63;;;21.27;;
2646;SDS011;1333;50.958;6.770;2024-02-28T04:28:01;48.10;;;19.20;;
2646;SDS011;1333;50.958;6.770;2024-02-28T04:30:27;43.87;;;18.70;;
2646;SDS011;1333;50.958;6.770;2024-02-28T04:32:53;46.23;;;21.20;;
2646;SDS011;1333;50.958;6.770;2024-02-28T04:35:18;48.50;;;19.17;;
2646;SDS011;1333;50.958;6.770;2024-02-28T04:37:45;42.90;;;17.00;;
2646;SDS011;1333;50.958;6.770;2024-02-28T04:40:11;46.43;;;18.93;;
2646;SDS011;1333;50.958;6.770;2024-02-28T04:42:37;48.70;;;20.77;;
2646;SDS011;1333;50.958;6.770;2024-02-28T04:45:03;37.30;;;18.90;;
2646;SDS011;1333;50.958;6.770;2024-02-28T04:47:29;38.37;;;15.90;;
2646;SDS011;1333;50.958;6.770;2024-02-28T04:49:55;48.80;;;17.53;;
2646;SDS011;1333;50.958;6.770;2024-02-28T04:52:21;43.10;;;21.70;;
2646;SDS011;1333;50.958;6.770;2024-02-28T04:54:46;54.30;;;19.17;;
2646;SDS011;1333;50.958;6.770;2024-02-28T04:57:12;56.63;;;18.70;;
2646;SDS011;1333;50.958;6.770;2024-02-28T04:59:38;45.27;;;15.70;;
2646;SDS011;1333;50.958;6.770;2024-02-28T05:02:03;38.90;;;15.17;;
2646;SDS011;1333;50.958;6.770;2024-02-28T05:04:29;43.43;;;16.70;;
2646;SDS011;1333;50.958;6.770;2024-02-28T05:06:54;32.50;;;15.13;;
2646;SDS011;1333;50.958;6.770;2024-02-28T05:09:20;35.13;;;16.17;;
2646;SDS011;1333;50.958;6.770;2024-02-28T05:11:45;42.67;;;16.20;;
2646;SDS011;1333;50.958;6.770;2024-02-28T05:14:11;31.70;;;14.03;;
2646;SDS011;1333;50.958;6.770;2024-02-28T05:16:36;44.60;;;15.03;;
2646;SDS011;1333;50.958;6.770;2024-02-28T05:19:02;33.00;;;14.73;;
2646;SDS011;1333;50.958;6.770;2024-02-28T05:21:29;36.63;;;14.60;;
2646;SDS011;1333;50.958;6.770;2024-02-28T05:23:54;43.80;;;15.87;;
2646;SDS011;1333;50.958;6.770;2024-02-28T05:26:20;26.80;;;12.00;;
2646;SDS011;1333;50.958;6.770;2024-02-28T05:28:46;41.23;;;15.23;;
2646;SDS011;1333;50.958;6.770;2024-02-28T05:31:24;33.57;;;13.30;;
2646;SDS011;1333;50.958;6.770;2024-02-28T05:33:51;43.70;;;17.63;;
2646;SDS011;1333;50.958;6.770;2024-02-28T05:36:19;40.13;;;14.57;;
2646;SDS011;1333;50.958;6.770;2024-02-28T05:38:48;37.60;;;17.40;;
2646;SDS011;1333;50.958;6.770;2024-02-28T05:41:14;41.53;;;16.80;;
2646;SDS011;1333;50.958;6.770;2024-02-28T05:43:41;47.50;;;18.57;;
2646;SDS011;1333;50.958;6.770;2024-02-28T05:46:07;46.50;;;18.03;;
2646;SDS011;1333;50.958;6.770;2024-02-28T05:48:32;49.30;;;14.83;;
2646;SDS011;1333;50.958;6.770;2024-02-28T05:51:00;48.80;;;18.00;;
2646;SDS011;1333;50.958;6.770;2024-02-28T05:53:26;49.60;;;16.60;;
2646;SDS011;1333;50.958;6.770;2024-02-28T05:55:52;43.80;;;18.57;;
2646;SDS011;1333;50.958;6.770;2024-02-28T05:58:21;52.00;;;17.03;;
2646;SDS011;1333;50.958;6.770;2024-02-28T06:00:47;44.50;;;18.70;;
2646;SDS011;1333;50.958;6.770;2024-02-28T06:03:13;50.97;;;18.33;;
2646;SDS011;1333;50.958;6.770;2024-02-28T06:05:38;50.10;;;16.30;;
2646;SDS011;1333;50.958;6.770;2024-02-28T06:08:04;38.03;;;15.07;;
2646;SDS011;1333;50.958;6.770;2024-02-28T06:10:30;56.07;;;18.50;;
2646;SDS011;1333;50.958;6.770;2024-02-28T06:12:55;58.43;;;19.10;;
2646;SDS011;1333;50.958;6.770;2024-02-28T06:15:21;50.93;;;18.83;;
2646;SDS011;1333;50.958;6.770;2024-02-28T06:17:46;57.00;;;17.30;;
2646;SDS011;1333;50.958;6.770;2024-02-28T06:20:12;41.17;;;16.60;;
2646;SDS011;1333;50.958;6.770;2024-02-28T06:22:37;57.33;;;21.53;;
2646;SDS011;1333;50.958;6.770;2024-02-28T06:25:03;48.37;;;17.30;;
2646;SDS011;1333;50.958;6.770;2024-02-28T06:27:32;50.57;;;17.67;;
2646;SDS011;1333;50.958;6.770;2024-02-28T06:29:58;59.93;;;19.70;;
2646;SDS011;1333;50.958;6.770;2024-02-28T06:32:24;36.07;;;18.40;;
2646;SDS011;1333;50.958;6.770;2024-02-28T06:34:50;38.43;;;15.70;;
2646;SDS011;1333;50.958;6.770;2024-02-28T06:37:15;41.97;;;14.93;;
2646;SDS011;1333;50.958;6.770;2024-02-28T06:39:41;59.47;;;18.40;;
2646;SDS011;1333;50.958;6.770;2024-02-28T06:42:07;49.37;;;18.53;;
2646;SDS011;1333;50.958;6.770;2024-02-28T06:44:32;43.07;;;17.83;;
2646;SDS011;1333;50.958;6.770;2024-02-28T06:46:58;52.87;;;18.93;;
2646;SDS011;1333;50.958;6.770;2024-02-28T06:49:23;41.53;;;17.37;;
2646;SDS011;1333;50.958;6.770;2024-02-28T06:51:49;40.20;;;15.70;;
2646;SDS011;1333;50.958;6.770;2024-02-28T06:54:15;47.60;;;15.70;;
2646;SDS011;1333;50.958;6.770;2024-02-28T06:56:40;54.07;;;18.13;;
2646;SDS011;1333;50.958;6.770;2024-02-28T06:59:06;49.10;;;17.77;;
2646;SDS011;1333;50.958;6.770;2024-02-28T07:01:32;57.07;;;19.67;;
2646;SDS011;1333;50.958;6.770;2024-02-28T07:03:57;58.10;;;20.93;;
2646;SDS011;1333;50.958;6.770;2024-02-28T07:06:23;66.47;;;22.17;;
2646;SDS011;1333;50.958;6.770;2024-02-28T07:08:48;41.77;;;17.07;;
2646;SDS011;1333;50.958;6.770;2024-02-28T07:11:14;70.13;;;21.20;;
2646;SDS011;1333;50.958;6.770;2024-02-28T07:13:40;62.93;;;20.80;;
2646;SDS011;1333;50.958;6.770;2024-02-28T07:16:06;47.17;;;18.23;;
2646;SDS011;1333;50.958;6.770;2024-02-28T07:18:32;59.67;;;20.50;;
2646;SDS011;1333;50.958;6.770;2024-02-28T07:20:58;73.10;;;23.37;;
2646;SDS011;1333;50.958;6.770;2024-02-28T07:23:23;52.33;;;17.13;;
2646;SDS011;1333;50.958;6.770;2024-02-28T07:25:49;69.90;;;21.77;;
2646;SDS011;1333;50.958;6.770;2024-02-28T07:28:15;55.07;;;20.63;;
2646;SDS011;1333;50.958;6.770;2024-02-28T07:30:40;62.57;;;22.87;;
2646;SDS011;1333;50.958;6.770;2024-02-28T07:33:07;51.10;;;19.57;;
2646;SDS011;1333;50.958;6.770;2024-02-28T07:35:43;43.17;;;18.07;;
2646;SDS011;1333;50.958;6.770;2024-02-28T07:38:12;65.43;;;22.27;;
2646;SDS011;1333;50.958;6.770;2024-02-28T07:40:37;58.90;;;21.17;;
2646;SDS011;1333;50.958;6.770;2024-02-28T07:43:03;71.93;;;24.17;;
2646;SDS011;1333;50.958;6.770;2024-02-28T07:45:28;72.27;;;21.57;;
2646;SDS011;1333;50.958;6.770;2024-02-28T07:47:54;44.97;;;18.63;;
2646;SDS011;1333;50.958;6.770;2024-02-28T07:50:19;58.37;;;21.93;;
2646;SDS011;1333;50.958;6.770;2024-02-28T07:52:45;47.57;;;19.10;;
2646;SDS011;1333;50.958;6.770;2024-02-28T07:55:10;55.17;;;22.73;;
2646;SDS011;1333;50.958;6.770;2024-02-28T07:57:36;54.13;;;23.43;;
2646;SDS011;1333;50.958;6.770;2024-02-28T08:00:02;49.00;;;19.77;;
2646;SDS011;1333;50.958;6.770;2024-02-28T08:02:28;62.13;;;25.20;;
2646;SDS011;1333;50.958;6.770;2024-02-28T08:04:53;62.13;;;21.90;;
2646;SDS011;1333;50.958;6.770;2024-02-28T08:07:19;56.50;;;23.43;;
2646;SDS011;1333;50.958;6.770;2024-02-28T08:09:44;71.47;;;22.17;;
2646;SDS011;1333;50.958;6.770;2024-02-28T08:12:10;44.23;;;19.87;;
2646;SDS011;1333;50.958;6.770;2024-02-28T08:14:35;52.73;;;22.23;;
2646;SDS011;1333;50.958;6.770;2024-02-28T08:17:01;50.40;;;21.57;;
2646;SDS011;1333;50.958;6.770;2024-02-28T08:19:26;50.73;;;21.87;;
2646;SDS011;1333;50.958;6.770;2024-02-28T08:21:52;56.07;;;22.93;;
2646;SDS011;1333;50.958;6.770;2024-02-28T08:24:17;56.50;;;20.80;;
2646;SDS011;1333;50.958;6.770;2024-02-28T08:26:43;49.10;;;21.97;;
2646;SDS011;1333;50.958;6.770;2024-02-28T08:29:09;52.13;;;21.87;;
2646;SDS011;1333;50.958;6.770;2024-02-28T08:31:39;56.00;;;21.40;;
2646;SDS011;1333;50.958;6.770;2024-02-28T08:34:08;51.23;;;22.17;;
2646;SDS011;1333;50.958;6.770;2024-02-28T08:36:34;60.87;;;21.50;;
2646;SDS011;1333;50.958;6.770;2024-02-28T08:39:00;44.57;;;20.60;;
2646;SDS011;1333;50.958;6.770;2024-02-28T08:41:26;39.77;;;19.87;;
2646;SDS011;1333;50.958;6.770;2024-02-28T08:43:51;53.60;;;21.60;;
2646;SDS011;1333;50.958;6.770;2024-02-28T08:46:17;44.50;;;20.00;;
2646;SDS011;1333;50.958;6.770;2024-02-28T08:48:42;46.83;;;19.40;;
2646;SDS011;1333;50.958;6.770;2024-02-28T08:51:08;54.13;;;21.90;;
2646;SDS011;1333;50.958;6.770;2024-02-28T08:53:33;45.40;;;22.40;;
2646;SDS011;1333;50.958;6.770;2024-02-28T08:55:59;54.13;;;22.00;;
2646;SDS011;1333;50.958;6.770;2024-02-28T08:58:24;49.77;;;21.03;;
2646;SDS011;1333;50.958;6.770;2024-02-28T09:00:50;40.27;;;20.20;;
2646;SDS011;1333;50.958;6.770;2024-02-28T09:03:16;42.27;;;20.63;;
2646;SDS011;1333;50.958;6.770;2024-02-28T09:05:41;45.70;;;22.20;;
2646;SDS011;1333;50.958;6.770;2024-02-28T09:08:07;46.97;;;22.23;;
2646;SDS011;1333;50.958;6.770;2024-02-28T09:10:33;45.40;;;19.53;;
2646;SDS011;1333;50.958;6.770;2024-02-28T09:12:59;39.30;;;19.63;;
2646;SDS011;1333;50.958;6.770;2024-02-28T09:15:25;39.43;;;21.00;;
2646;SDS011;1333;50.958;6.770;2024-02-28T09:17:50;36.43;;;19.20;;
2646;SDS011;1333;50.958;6.770;2024-02-28T09:20:16;39.03;;;18.37;;
2646;SDS011;1333;50.958;6.770;2024-02-28T09:22:42;37.10;;;20.30;;
2646;SDS011;1333;50.958;6.770;2024-02-28T09:25:07;33.10;;;18.00;;
2646;SDS011;1333;50.958;6.770;2024-02-28T09:27:33;32.43;;;18.60;;
2646;SDS011;1333;50.958;6.770;2024-02-28T09:30:00;28.83;;;15.90;;
2646;SDS011;1333;50.958;6.770;2024-02-28T09:32:27;33.57;;;19.40;;
2646;SDS011;1333;50.958;6.770;2024-02-28T09:34:53;27.73;;;17.50;;
2646;SDS011;1333;50.958;6.770;2024-02-28T09:37:18;31.57;;;18.03;;
2646;SDS011;1333;50.958;6.770;2024-02-28T09:39:46;32.63;;;17.50;;
2646;SDS011;1333;50.958;6.770;2024-02-28T09:42:11;29.07;;;18.20;;
2646;SDS011;1333;50.958;6.770;2024-02-28T09:44:38;33.60;;;19.90;;
2646;SDS011;1333;50.958;6.770;2024-02-28T09:47:05;37.80;;;17.97;;
2646;SDS011;1333;50.958;6.770;2024-02-28T09:49:31;31.87;;;18.30;;
2646;SDS011;1333;50.958;6.770;2024-02-28T09:51:57;33.50;;;17.33;;
2646;SDS011;1333;50.958;6.770;2024-02-28T09:54:24;27.60;;;17.17;;
2646;SDS011;1333;50.958;6.770;2024-02-28T09:56:50;31.30;;;17.93;;
2646;SDS011;1333;50.958;6.770;2024-02-28T09:59:17;33.20;;;17.40;;
2646;SDS011;1333;50.958;6.770;2024-02-28T10:01:43;26.30;;;16.20;;
2646;SDS011;1333;50.958;6.770;2024-02-28T10:04:12;32.27;;;17.40;;
2646;SDS011;1333;50.958;6.770;2024-02-28T10:06:39;25.00;;;16.90;;
2646;SDS011;1333;50.958;6.770;2024-02-28T10:09:05;28.37;;;17.17;;
2646;SDS011;1333;50.958;6.770;2024-02-28T10:11:32;27.53;;;17.40;;
2646;SDS011;1333;50.958;6.770;2024-02-28T10:13:58;26.50;;;17.70;;
2646;SDS011;1333;50.958;6.770;2024-02-28T10:16:24;28.33;;;15.57;;
2646;SDS011;1333;50.958;6.770;2024-02-28T10:18:50;24.30;;;16.40;;
2646;SDS011;1333;50.958;6.770;2024-02-28T10:21:15;25.03;;;16.70;;
2646;SDS011;1333;50.958;6.770;2024-02-28T10:23:41;21.50;;;15.80;;
2646;SDS011;1333;50.958;6.770;2024-02-28T10:26:10;23.90;;;16.40;;
2646;SDS011;1333;50.958;6.770;2024-02-28T10:28:40;25.20;;;17.10;;
2646;SDS011;1333;50.958;6.770;2024-02-28T10:31:09;24.00;;;17.00;;
2646;SDS011;1333;50.958;6.770;2024-02-28T10:33:35;20.40;;;15.10;;
2646;SDS011;1333;50.958;6.770;2024-02-28T10:36:04;25.33;;;18.13;;
2646;SDS011;1333;50.958;6.770;2024-02-28T10:38:30;18.83;;;14.37;;
2646;SDS011;1333;50.958;6.770;2024-02-28T10:40:58;20.80;;;14.50;;
2646;SDS011;1333;50.958;6.770;2024-02-28T10:43:25;24.97;;;17.90;;
2646;SDS011;1333;50.958;6.770;2024-02-28T10:45:54;26.87;;;20.33;;
2646;SDS011;1333;50.958;6.770;2024-02-28T10:48:24;24.67;;;19.10;;
2646;SDS011;1333;50.958;6.770;2024-02-28T10:50:51;27.60;;;20.37;;
2646;SDS011;1333;50.958;6.770;2024-02-28T10:53:18;27.97;;;20.77;;
2646;SDS011;1333;50.958;6.770;2024-02-28T10:55:47;31.10;;;23.10;;
2646;SDS011;1333;50.958;6.770;2024-02-28T10:58:13;31.13;;;22.93;;
2646;SDS011;1333;50.958;6.770;2024-02-28T11:00:40;29.63;;;20.10;;
2646;SDS011;1333;50.958;6.770;2024-02-28T11:03:09;25.70;;;17.57;;
2646;SDS011;1333;50.958;6.770;2024-02-28T11:05:39;23.43;;;16.60;;
2646;SDS011;1333;50.958;6.770;2024-02-28T11:08:09;16.03;;;13.50;;
2646;SDS011;1333;50.958;6.770;2024-02-28T11:10:35;13.60;;;10.73;;
2646;SDS011;1333;50.958;6.770;2024-02-28T11:13:06;21.50;;;15.20;;
2646;SDS011;1333;50.958;6.770;2024-02-28T11:15:33;17.50;;;14.10;;
2646;SDS011;1333;50.958;6.770;2024-02-28T11:18:08;21.63;;;17.30;;
2646;SDS011;1333;50.958;6.770;2024-02-28T11:20:34;17.57;;;14.00;;
2646;SDS011;1333;50.958;6.770;2024-02-28T11:23:00;18.00;;;14.73;;
2646;SDS011;1333;50.958;6.770;2024-02-28T11:25:26;22.37;;;16.03;;
2646;SDS011;1333;50.958;6.770;2024-02-28T11:27:52;16.63;;;12.70;;
2646;SDS011;1333;50.958;6.770;2024-02-28T11:30:17;15.70;;;12.97;;
2646;SDS011;1333;50.958;6.770;2024-02-28T11:32:43;18.20;;;14.70;;
2646;SDS011;1333;50.958;6.770;2024-02-28T11:35:09;15.70;;;12.17;;
2646;SDS011;1333;50.958;6.770;2024-02-28T11:37:37;19.70;;;14.97;;
2646;SDS011;1333;50.958;6.770;2024-02-28T11:40:06;21.37;;;15.97;;
2646;SDS011;1333;50.958;6.770;2024-02-28T11:42:33;19.37;;;16.20;;
2646;SDS011;1333;50.958;6.770;2024-02-28T11:44:59;20.20;;;16.53;;
2646;SDS011;1333;50.958;6.770;2024-02-28T11:47:28;19.83;;;16.67;;
2646;SDS011;1333;50.958;6.770;2024-02-28T11:49:57;23.30;;;15.20;;
2646;SDS011;1333;50.958;6.770;2024-02-28T11:52:24;17.43;;;13.77;;
2646;SDS011;1333;50.958;6.770;2024-02-28T11:54:50;25.43;;;14.83;;
2646;SDS011;1333;50.958;6.770;2024-02-28T11:57:16;19.03;;;13.50;;
2646;SDS011;1333;50.958;6.770;2024-02-28T11:59:43;20.60;;;15.93;;
2646;SDS011;1333;50.958;6.770;2024-02-28T12:02:13;20.43;;;14.77;;
2646;SDS011;1333;50.958;6.770;2024-02-28T12:04:41;23.23;;;18.67;;
2646;SDS011;1333;50.958;6.770;2024-02-28T12:07:07;15.43;;;12.93;;
2646;SDS011;1333;50.958;6.770;2024-02-28T12:09:33;13.60;;;11.40;;
2646;SDS011;1333;50.958;6.770;2024-02-28T12:12:02;15.60;;;12.63;;
2646;SDS011;1333;50.958;6.770;2024-02-28T12:14:31;23.60;;;19.00;;
2646;SDS011;1333;50.958;6.770;2024-02-28T12:16:57;16.10;;;12.73;;
2646;SDS011;1333;50.958;6.770;2024-02-28T12:19:23;18.40;;;14.83;;
2646;SDS011;1333;50.958;6.770;2024-02-28T12:21:49;15.30;;;12.10;;
2646;SDS011;1333;50.958;6.770;2024-02-28T12:24:15;14.00;;;11.10;;
2646;SDS011;1333;50.958;6.770;2024-02-28T12:26:41;18.80;;;14.53;;
2646;SDS011;1333;50.958;6.770;2024-02-28T12:29:07;16.27;;;12.80;;
2646;SDS011;1333;50.958;6.770;2024-02-28T12:31:34;16.70;;;14.10;;
2646;SDS011;1333;50.958;6.770;2024-02-28T12:34:00;17.83;;;12.93;;
2646;SDS011;1333;50.958;6.770;2024-02-28T12:36:25;16.67;;;13.20;;
2646;SDS011;1333;50.958;6.770;2024-02-28T12:38:51;14.23;;;11.60;;
2646;SDS011;1333;50.958;6.770;2024-02-28T12:41:17;12.17;;;10.03;;
2646;SDS011;1333;50.958;6.770;2024-02-28T12:43:42;16.33;;;12.90;;
2646;SDS011;1333;50.958;6.770;2024-02-28T12:46:08;14.30;;;10.60;;
2646;SDS011;1333;50.958;6.770;2024-02-28T12:48:37;18.20;;;14.10;;
2646;SDS011;1333;50.958;6.770;2024-02-28T12:51:04;13.47;;;12.07;;
2646;SDS011;1333;50.958;6.770;2024-02-28T12:53:30;11.57;;;10.07;;
2646;SDS011;1333;50.958;6.770;2024-02-28T12:55:56;17.20;;;13.30;;
2646;SDS011;1333;50.958;6.770;2024-02-28T12:58:22;16.40;;;11.43;;
2646;SDS011;1333;50.958;6.770;2024-02-28T13:00:48;12.90;;;11.60;;
2646;SDS011;1333;50.958;6.770;2024-02-28T13:03:14;19.37;;;11.67;;
2646;SDS011;1333;50.958;6.770;2024-02-28T13:05:41;16.10;;;12.27;;
2646;SDS011;1333;50.958;6.770;2024-02-28T13:08:06;14.77;;;11.73;;
2646;SDS011;1333;50.958;6.770;2024-02-28T13:10:32;14.13;;;10.87;;
2646;SDS011;1333;50.958;6.770;2024-02-28T13:13:01;22.87;;;15.77;;
2646;SDS011;1333;50.958;6.770;2024-02-28T13:15:27;18.03;;;14.73;;
2646;SDS011;1333;50.958;6.770;2024-02-28T13:17:52;24.07;;;17.00;;
2646;SDS011;1333;50.958;6.770;2024-02-28T13:20:18;22.30;;;16.30;;
2646;SDS011;1333;50.958;6.770;2024-02-28T13:22:44;24.90;;;14.40;;
2646;SDS011;1333;50.958;6.770;2024-02-28T13:25:10;25.93;;;14.73;;
2646;SDS011;1333;50.958;6.770;2024-02-28T13:27:36;24.63;;;17.97;;
2646;SDS011;1333;50.958;6.770;2024-02-28T13:30:02;22.80;;;15.80;;
2646;SDS011;1333;50.958;6.770;2024-02-28T13:32:28;22.87;;;15.03;;
2646;SDS011;1333;50.958;6.770;2024-02-28T13:34:54;27.83;;;16.80;;
2646;SDS011;1333;50.958;6.770;2024-02-28T13:37:19;21.10;;;14.53;;
2646;SDS011;1333;50.958;6.770;2024-02-28T13:39:45;17.33;;;13.50;;
2646;SDS011;1333;50.958;6.770;2024-02-28T13:42:11;21.03;;;15.43;;
2646;SDS011;1333;50.958;6.770;2024-02-28T13:44:37;21.37;;;14.17;;
2646;SDS011;1333;50.958;6.770;2024-02-28T13:47:03;21.73;;;14.13;;
2646;SDS011;1333;50.958;6.770;2024-02-28T13:49:29;27.17;;;15.30;;
2646;SDS011;1333;50.958;6.770;2024-02-28T13:51:54;22.60;;;14.00;;
2646;SDS011;1333;50.958;6.770;2024-02-28T13:54:20;19.10;;;13.33;;
2646;SDS011;1333;50.958;6.770;2024-02-28T13:56:45;16.30;;;11.20;;
2646;SDS011;1333;50.958;6.770;2024-02-28T13:59:11;23.73;;;14.63;;
2646;SDS011;1333;50.958;6.770;2024-02-28T14:01:37;19.00;;;12.90;;
2646;SDS011;1333;50.958;6.770;2024-02-28T14:04:03;22.57;;;13.50;;
2646;SDS011;1333;50.958;6.770;2024-02-28T14:06:29;22.50;;;14.27;;
2646;SDS011;1333;50.958;6.770;2024-02-28T14:08:55;19.53;;;12.40;;
2646;SDS011;1333;50.958;6.770;2024-02-28T14:11:21;18.10;;;10.70;;
2646;SDS011;1333;50.958;6.770;2024-02-28T14:13:47;24.90;;;14.20;;
2646;SDS011;1333;50.958;6.770;2024-02-28T14:16:13;19.97;;;13.40;;
2646;SDS011;1333;50.958;6.770;2024-02-28T14:18:39;14.73;;;10.10;;
2646;SDS011;1333;50.958;6.770;2024-02-28T14:21:04;21.30;;;14.00;;
2646;SDS011;1333;50.958;6.770;2024-02-28T14:23:30;23.73;;;12.40;;
2646;SDS011;1333;50.958;6.770;2024-02-28T14:25:55;20.17;;;12.33;;
2646;SDS011;1333;50.958;6.770;2024-02-28T14:28:21;19.63;;;11.63;;
2646;SDS011;1333;50.958;6.770;2024-02-28T14:30:47;23.30;;;12.70;;
2646;SDS011;1333;50.958;6.770;2024-02-28T14:33:14;17.73;;;10.90;;
2646;SDS011;1333;50.958;6.770;2024-02-28T14:35:39;21.67;;;13.80;;
2646;SDS011;1333;50.958;6.770;2024-02-28T14:38:06;21.43;;;13.67;;
2646;SDS011;1333;50.958;6.770;2024-02-28T14:40:32;20.07;;;12.73;;